Time;durP1;ratioP1;P1;durP2;ratioP2;P2;SDS_P1;SDS_P2;PMS_P1;PMS_P2;Temp;Humidity;BMP_temperature;BMP_pressure;BME280_temperature;BME280_humidity;BME280_pressure;Samples;Min_cycle;Max_cycle;Signal;HPM_P1;HPM_P2
2024/01/16 00:00:52;;;;;;;3.85;1.05;;;1.40;99.90;;;;;;5094325;28;20070;-61
2024/01/16 00:03:18;;;;;;;3.50;0.68;;;1.40;99.90;;;;;;5094464;28;20102;-61
2024/01/16 00:05:44;;;;;;;3.78;0.70;;;1.30;99.90;;;;;;5092361;28;20046;-61
2024/01/16 00:08:10;;;;;;;7.80;1.17;;;1.30;99.90;;;;;;5093028;28;20124;-61
2024/01/16 00:10:35;;;;;;;4.47;1.10;;;1.20;99.90;;;;;;5092767;28;20031;-61
2024/01/16 00:13:01;;;;;;;6.45;1.70;;;1.20;99.90;;;;;;5092052;28;20051;-61
2024/01/16 00:15:27;;;;;;;4.55;1.38;;;1.10;99.90;;;;;;5091977;28;20123;-61
2024/01/16 00:17:53;;;;;;;8.60;1.40;;;1.10;99.90;;;;;;5092751;28;20390;-61
2024/01/16 00:20:19;;;;;;;8.07;2.05;;;1.10;99.90;;;;;;5092002;28;20079;-61
2024/01/16 00:22:46;;;;;;;3.88;1.10;;;1.10;99.90;;;;;;5092590;28;20435;-61
2024/01/16 00:25:11;;;;;;;8.05;1.85;;;1.10;99.90;;;;;;5092651;28;20071;-61
2024/01/16 00:27:37;;;;;;;5.15;1.90;;;1.10;99.90;;;;;;5093294;28;20067;-61
2024/01/16 00:30:04;;;;;;;4.90;0.90;;;1.00;99.90;;;;;;5109744;28;20046;-61
2024/01/16 00:32:29;;;;;;;3.83;1.40;;;1.00;99.90;;;;;;5092418;28;20050;-61
2024/01/16 00:34:55;;;;;;;10.77;1.83;;;1.00;99.90;;;;;;5091917;28;20044;-61
2024/01/16 00:37:20;;;;;;;9.88;1.45;;;0.90;99.90;;;;;;5092190;28;20075;-61
2024/01/16 00:39:46;;;;;;;5.47;1.40;;;0.90;99.90;;;;;;5091255;28;20058;-61
2024/01/16 00:42:12;;;;;;;7.30;2.15;;;0.80;99.90;;;;;;5107010;28;20044;-61
2024/01/16 00:44:38;;;;;;;5.20;1.35;;;0.80;99.90;;;;;;5073367;28;20375;-61
2024/01/16 00:47:05;;;;;;;6.32;1.00;;;0.80;99.90;;;;;;5071621;28;20036;-61
2024/01/16 00:49:31;;;;;;;3.38;1.40;;;0.70;99.90;;;;;;5072804;28;20047;-61
2024/01/16 00:51:56;;;;;;;7.38;1.63;;;0.60;99.90;;;;;;5073680;28;20401;-61
2024/01/16 00:54:22;;;;;;;6.30;2.10;;;0.60;99.90;;;;;;5071262;28;20105;-61
2024/01/16 00:56:48;;;;;;;5.32;1.10;;;0.60;99.90;;;;;;5076510;28;20123;-61
2024/01/16 00:59:13;;;;;;;6.68;1.60;;;0.60;99.90;;;;;;5092950;28;20046;-61
2024/01/16 01:01:39;;;;;;;8.70;1.67;;;0.60;99.90;;;;;;5091092;28;20044;-61
2024/01/16 01:04:05;;;;;;;5.13;1.60;;;0.60;99.90;;;;;;5075125;28;20036;-61
2024/01/16 01:06:30;;;;;;;10.40;1.63;;;0.60;99.90;;;;;;5091641;28;20058;-61
2024/01/16 01:08:56;;;;;;;16.10;2.35;;;0.70;99.90;;;;;;5092784;28;20137;-61
2024/01/16 01:11:22;;;;;;;8.18;1.25;;;0.90;99.90;;;;;;5091656;28;20052;-61
2024/01/16 01:13:47;;;;;;;6.25;1.25;;;1.00;99.90;;;;;;5091592;28;20070;-61
2024/01/16 01:16:13;;;;;;;6.63;1.80;;;1.10;99.90;;;;;;5107343;28;20039;-61
2024/01/16 01:18:39;;;;;;;5.30;1.05;;;1.10;99.90;;;;;;5092153;28;20106;-61
2024/01/16 01:21:05;;;;;;;3.90;0.80;;;1.00;99.90;;;;;;5092176;28;20473;-61
2024/01/16 01:23:31;;;;;;;3.97;0.93;;;1.00;99.90;;;;;;5107406;28;20116;-61
2024/01/16 01:25:56;;;;;;;5.53;0.95;;;1.00;99.90;;;;;;5090666;28;20111;-61
2024/01/16 01:28:22;;;;;;;4.68;1.55;;;1.00;99.90;;;;;;5092576;28;20115;-61
2024/01/16 01:30:47;;;;;;;4.40;1.70;;;1.00;99.90;;;;;;5091936;28;20143;-61
2024/01/16 01:33:13;;;;;;;2.67;1.00;;;1.00;99.90;;;;;;5091475;28;20046;-61
2024/01/16 01:35:39;;;;;;;5.22;1.08;;;0.90;99.90;;;;;;5091015;28;20044;-61
2024/01/16 01:38:06;;;;;;;6.05;1.75;;;0.90;99.90;;;;;;5090582;28;20042;-61
2024/01/16 01:40:32;;;;;;;4.90;1.83;;;0.80;99.90;;;;;;5072049;28;20056;-61
2024/01/16 01:42:58;;;;;;;5.20;2.42;;;0.80;99.90;;;;;;5087610;28;20063;-61
2024/01/16 01:45:23;;;;;;;7.35;2.25;;;0.80;99.90;;;;;;5070771;28;20097;-61
2024/01/16 01:47:49;;;;;;;6.90;1.25;;;0.80;99.90;;;;;;5090793;28;20275;-61
2024/01/16 01:50:15;;;;;;;3.75;1.50;;;0.80;99.90;;;;;;5091487;28;20966;-61
2024/01/16 01:52:41;;;;;;;6.22;1.83;;;0.80;99.90;;;;;;5090847;28;20114;-61
2024/01/16 01:55:11;;;;;;;3.30;0.80;;;0.80;99.90;;;;;;5090806;28;20040;-61
2024/01/16 01:57:37;;;;;;;4.43;1.20;;;0.80;99.90;;;;;;5089983;28;20425;-61
2024/01/16 02:00:04;;;;;;;10.13;1.15;;;0.80;99.90;;;;;;5091454;28;20044;-61
2024/01/16 02:02:32;;;;;;;6.28;1.27;;;0.80;99.90;;;;;;5091081;28;20050;-61
2024/01/16 02:04:57;;;;;;;2.45;0.80;;;0.70;99.90;;;;;;5090395;28;20039;-61
2024/01/16 02:07:24;;;;;;;8.02;1.33;;;0.70;99.90;;;;;;5090470;28;20063;-61
2024/01/16 02:09:50;;;;;;;4.45;1.00;;;0.60;99.90;;;;;;5090962;28;20112;-61
2024/01/16 02:12:16;;;;;;;4.32;1.00;;;0.60;99.90;;;;;;5090166;28;20058;-61
2024/01/16 02:14:42;;;;;;;5.10;1.23;;;0.50;99.90;;;;;;5092002;28;20040;-61
2024/01/16 02:17:07;;;;;;;6.20;1.30;;;0.40;99.90;;;;;;5090567;28;20130;-61
2024/01/16 02:19:33;;;;;;;4.25;1.33;;;0.40;99.90;;;;;;5091082;28;20074;-61
2024/01/16 02:22:05;;;;;;;4.45;1.20;;;0.40;99.90;;;;;;5090562;28;20043;-61
2024/01/16 02:24:31;;;;;;;3.15;1.20;;;0.40;99.90;;;;;;5073586;28;20076;-61
2024/01/16 02:26:57;;;;;;;4.80;1.25;;;0.40;99.90;;;;;;5089943;28;20090;-61
2024/01/16 02:29:23;;;;;;;4.72;1.63;;;0.40;99.90;;;;;;5090729;28;20040;-61
2024/01/16 02:31:48;;;;;;;5.38;1.05;;;0.40;99.90;;;;;;5090662;28;20051;-61
2024/01/16 02:34:14;;;;;;;6.25;1.17;;;0.40;99.90;;;;;;5089725;28;20044;-61
2024/01/16 02:36:40;;;;;;;8.88;1.50;;;0.40;99.90;;;;;;5090363;28;20028;-61
2024/01/16 02:39:06;;;;;;;4.28;1.65;;;0.40;99.90;;;;;;5095085;28;20048;-61
2024/01/16 02:41:32;;;;;;;5.43;1.40;;;0.40;99.90;;;;;;5093709;28;20044;-61
2024/01/16 02:43:57;;;;;;;7.00;1.17;;;0.40;99.90;;;;;;5094974;28;20038;-61
2024/01/16 02:46:23;;;;;;;7.38;1.75;;;0.30;99.90;;;;;;5094790;28;20103;-61
2024/01/16 02:48:49;;;;;;;10.68;1.65;;;0.30;99.90;;;;;;5094590;28;20043;-61
2024/01/16 02:51:15;;;;;;;8.18;1.30;;;0.30;99.90;;;;;;5094456;28;20059;-61
2024/01/16 02:53:41;;;;;;;9.88;2.00;;;0.30;99.90;;;;;;5094142;28;20109;-61
2024/01/16 02:56:08;;;;;;;5.32;1.73;;;0.30;99.90;;;;;;5094003;28;20501;-61
2024/01/16 02:58:34;;;;;;;5.90;1.45;;;0.30;99.90;;;;;;5094555;28;20401;-61
2024/01/16 03:00:59;;;;;;;4.07;1.27;;;0.30;99.90;;;;;;5077394;28;20040;-61
2024/01/16 03:03:27;;;;;;;9.48;1.40;;;0.30;99.90;;;;;;5094185;28;20174;-61
2024/01/16 03:05:52;;;;;;;8.90;1.58;;;0.30;99.90;;;;;;5093904;28;20051;-61
2024/01/16 03:08:18;;;;;;;8.15;1.75;;;0.30;99.90;;;;;;5093373;28;20043;-61
2024/01/16 03:10:44;;;;;;;4.72;1.63;;;0.30;99.90;;;;;;5077627;28;20118;-61
2024/01/16 03:13:10;;;;;;;9.70;1.20;;;0.40;99.90;;;;;;5093964;28;20554;-61
2024/01/16 03:15:36;;;;;;;4.40;1.10;;;0.40;99.90;;;;;;5092901;28;20083;-61
2024/01/16 03:18:02;;;;;;;4.00;1.00;;;0.40;99.90;;;;;;5094196;28;20036;-61
2024/01/16 03:20:30;;;;;;;10.38;1.50;;;0.50;99.90;;;;;;5093926;28;20044;-61
2024/01/16 03:22:56;;;;;;;6.72;1.63;;;0.50;99.90;;;;;;5110835;28;20059;-61
2024/01/16 03:25:22;;;;;;;7.00;1.30;;;0.60;99.90;;;;;;5094254;28;20473;-61
2024/01/16 03:27:48;;;;;;;3.38;1.20;;;0.60;99.90;;;;;;5094899;28;20036;-61
2024/01/16 03:30:13;;;;;;;9.65;1.60;;;0.60;99.90;;;;;;5093106;28;20051;-61
2024/01/16 03:32:39;;;;;;;7.97;1.13;;;0.60;99.90;;;;;;5093614;28;20044;-61
2024/01/16 03:35:06;;;;;;;5.40;1.70;;;0.60;99.90;;;;;;5093902;28;20055;-61
2024/01/16 03:37:32;;;;;;;7.45;1.50;;;0.50;99.90;;;;;;5092330;28;20089;-61
2024/01/16 03:39:57;;;;;;;4.32;0.88;;;0.50;99.90;;;;;;5111297;28;20047;-61
2024/01/16 03:42:24;;;;;;;7.57;1.65;;;0.50;99.90;;;;;;5093619;28;20484;-61
2024/01/16 03:44:49;;;;;;;4.43;1.10;;;0.50;99.90;;;;;;5090884;28;20041;-61
2024/01/16 03:47:15;;;;;;;9.23;2.05;;;0.50;99.90;;;;;;5087752;28;20040;-61
2024/01/16 03:49:41;;;;;;;5.57;1.52;;;0.50;99.90;;;;;;5094317;28;20047;-61
2024/01/16 03:52:07;;;;;;;9.65;1.98;;;0.50;99.90;;;;;;5093984;28;20040;-61
2024/01/16 03:54:33;;;;;;;8.40;2.28;;;0.50;99.90;;;;;;5093388;28;20131;-61
2024/01/16 03:56:58;;;;;;;5.25;0.90;;;0.50;99.90;;;;;;5092321;28;20056;-61
2024/01/16 03:59:24;;;;;;;4.63;1.38;;;0.50;99.90;;;;;;5093121;28;20048;-61
2024/01/16 04:01:50;;;;;;;8.02;1.58;;;0.60;99.90;;;;;;5093317;28;20095;-61
2024/01/16 04:04:16;;;;;;;6.93;1.90;;;0.70;99.90;;;;;;5092006;28;20047;-61
2024/01/16 04:06:42;;;;;;;28.92;2.05;;;0.70;99.90;;;;;;5092885;28;20042;-61
2024/01/16 04:09:09;;;;;;;10.90;1.83;;;0.80;99.90;;;;;;5093493;28;20047;-61
2024/01/16 04:11:35;;;;;;;9.80;1.75;;;0.90;99.90;;;;;;5075662;28;20052;-61
2024/01/16 04:14:01;;;;;;;7.53;1.60;;;0.90;99.90;;;;;;5094620;28;20075;-61
2024/01/16 04:16:27;;;;;;;8.82;1.75;;;0.90;99.90;;;;;;5092735;28;20036;-61
2024/01/16 04:18:53;;;;;;;9.18;1.30;;;0.90;99.90;;;;;;5075052;28;20102;-61
2024/01/16 04:21:19;;;;;;;7.40;1.83;;;0.90;99.90;;;;;;5092930;28;20044;-61
2024/01/16 04:23:44;;;;;;;12.45;1.98;;;0.90;99.90;;;;;;5094251;28;20115;-61
2024/01/16 04:26:10;;;;;;;13.68;2.05;;;0.80;99.90;;;;;;5091665;28;20043;-61
2024/01/16 04:28:39;;;;;;;7.43;1.90;;;0.90;99.90;;;;;;5092688;28;20044;-61
2024/01/16 04:31:05;;;;;;;9.63;1.63;;;0.80;99.90;;;;;;5093138;28;20040;-61
2024/01/16 04:33:30;;;;;;;5.28;1.80;;;0.80;99.90;;;;;;5091525;28;20044;-61
2024/01/16 04:35:56;;;;;;;11.82;1.65;;;0.70;99.90;;;;;;5092367;28;20036;-61
2024/01/16 04:38:23;;;;;;;9.10;1.77;;;0.70;99.90;;;;;;5092687;28;20142;-61
2024/01/16 04:40:49;;;;;;;9.90;2.35;;;0.70;99.90;;;;;;5091708;28;20044;-61
2024/01/16 04:43:14;;;;;;;3.80;1.25;;;0.60;99.90;;;;;;5093681;28;20038;-61
2024/01/16 04:45:40;;;;;;;4.95;2.03;;;0.60;99.90;;;;;;5093629;28;20128;-61
2024/01/16 04:48:06;;;;;;;6.45;1.80;;;0.60;99.90;;;;;;5093152;28;20040;-61
2024/01/16 04:50:32;;;;;;;4.32;1.63;;;0.60;99.90;;;;;;5092130;28;20052;-61
2024/01/16 04:53:01;;;;;;;7.53;1.83;;;0.70;99.90;;;;;;5091881;28;20130;-61
2024/01/16 04:55:27;;;;;;;8.98;1.30;;;0.70;99.90;;;;;;5091995;28;20047;-61
2024/01/16 04:57:54;;;;;;;6.50;1.55;;;0.80;99.90;;;;;;5074991;28;20066;-61
2024/01/16 05:00:20;;;;;;;9.30;2.45;;;0.90;99.90;;;;;;5074304;28;20035;-61
2024/01/16 05:02:46;;;;;;;4.50;1.40;;;1.00;99.90;;;;;;5093468;28;20044;-61
2024/01/16 05:05:12;;;;;;;7.03;1.10;;;1.10;99.90;;;;;;5091824;28;20075;-61
2024/01/16 05:07:38;;;;;;;8.00;1.52;;;1.10;99.90;;;;;;5091215;28;20044;-61
2024/01/16 05:10:05;;;;;;;6.72;1.35;;;1.20;99.90;;;;;;5092077;28;20097;-61
2024/01/16 05:12:30;;;;;;;3.83;1.30;;;1.20;99.90;;;;;;5091632;28;20489;-61
2024/01/16 05:14:56;;;;;;;6.63;1.90;;;1.20;99.90;;;;;;5091359;28;20044;-61
2024/01/16 05:17:21;;;;;;;8.82;1.73;;;1.20;99.90;;;;;;5091415;28;20048;-61
2024/01/16 05:19:47;;;;;;;8.75;2.55;;;1.20;99.90;;;;;;5091500;28;20032;-61
2024/01/16 05:22:13;;;;;;;9.15;2.10;;;1.30;99.90;;;;;;5092275;28;20036;-61
2024/01/16 05:24:39;;;;;;;6.15;1.33;;;1.30;99.90;;;;;;5091806;28;20039;-61
2024/01/16 05:27:04;;;;;;;6.88;2.50;;;1.30;99.90;;;;;;5091973;28;20127;-61
2024/01/16 05:29:31;;;;;;;5.60;1.65;;;1.30;99.90;;;;;;5090282;28;20054;-61
2024/01/16 05:31:57;;;;;;;4.30;1.10;;;1.30;99.90;;;;;;5091913;28;20043;-61
2024/01/16 05:34:22;;;;;;;5.53;2.13;;;1.30;99.90;;;;;;5074591;28;20541;-61
2024/01/16 05:36:48;;;;;;;6.80;2.17;;;1.30;99.90;;;;;;5091883;28;20047;-61
2024/01/16 05:39:14;;;;;;;6.90;1.35;;;1.30;99.90;;;;;;5092285;28;20044;-61
2024/01/16 05:41:40;;;;;;;6.85;2.88;;;1.20;99.90;;;;;;5091842;28;20124;-61
2024/01/16 05:44:06;;;;;;;9.30;3.17;;;1.20;99.90;;;;;;5074069;28;20036;-61
2024/01/16 05:46:32;;;;;;;5.47;1.67;;;1.10;99.90;;;;;;5090925;28;20047;-60
2024/01/16 05:48:58;;;;;;;7.43;1.67;;;1.10;99.90;;;;;;5107935;28;20123;-61
2024/01/16 05:51:25;;;;;;;7.60;1.67;;;1.00;99.90;;;;;;5090477;28;20115;-61
2024/01/16 05:53:51;;;;;;;6.80;2.65;;;0.90;99.90;;;;;;5092251;28;20044;-61
2024/01/16 05:56:17;;;;;;;8.98;1.80;;;0.90;99.90;;;;;;5089770;28;20047;-61
2024/01/16 05:58:42;;;;;;;8.55;2.80;;;0.90;99.90;;;;;;5092125;28;20070;-61
2024/01/16 06:01:08;;;;;;;8.88;2.65;;;0.80;99.90;;;;;;5092642;28;20036;-61
2024/01/16 06:03:34;;;;;;;6.25;2.13;;;0.80;99.90;;;;;;5091930;28;20070;-61
2024/01/16 06:05:59;;;;;;;8.18;2.10;;;0.70;99.90;;;;;;5091385;28;20039;-61
2024/01/16 06:08:25;;;;;;;6.40;2.30;;;0.70;99.90;;;;;;5091038;28;20052;-61
2024/01/16 06:10:51;;;;;;;8.93;1.65;;;0.70;99.90;;;;;;5089570;28;20040;-61
2024/01/16 06:13:18;;;;;;;6.82;1.50;;;0.60;99.90;;;;;;5090199;28;20047;-61
2024/01/16 06:15:44;;;;;;;7.55;2.05;;;0.60;99.90;;;;;;5073727;28;20492;-61
2024/01/16 06:18:10;;;;;;;6.82;1.58;;;0.60;99.90;;;;;;5089416;28;20124;-61
2024/01/16 06:20:35;;;;;;;8.68;2.50;;;0.60;99.90;;;;;;5090692;28;20035;-61
2024/01/16 06:23:01;;;;;;;7.20;2.75;;;0.60;99.90;;;;;;5090982;28;20173;-61
2024/01/16 06:25:27;;;;;;;6.65;3.05;;;0.50;99.90;;;;;;5089923;28;20097;-61
2024/01/16 06:27:53;;;;;;;11.35;3.70;;;0.60;99.90;;;;;;5090812;28;20132;-61
2024/01/16 06:30:18;;;;;;;7.50;2.65;;;0.60;99.90;;;;;;5090126;28;20102;-61
2024/01/16 06:32:44;;;;;;;8.02;2.03;;;0.60;99.90;;;;;;5091230;28;20043;-61
2024/01/16 06:35:12;;;;;;;6.00;1.90;;;0.60;99.90;;;;;;5091230;28;20047;-61
2024/01/16 06:37:38;;;;;;;6.38;1.35;;;0.60;99.90;;;;;;5074085;28;20059;-61
2024/01/16 06:40:04;;;;;;;11.60;2.78;;;0.50;99.90;;;;;;5090092;28;20032;-61
2024/01/16 06:42:29;;;;;;;6.55;1.65;;;0.60;99.90;;;;;;5091781;28;20044;-61
2024/01/16 06:44:55;;;;;;;9.27;2.45;;;0.60;99.90;;;;;;5092161;28;20085;-61
2024/01/16 06:47:21;;;;;;;7.95;1.52;;;0.50;99.90;;;;;;5090077;28;20036;-61
2024/01/16 06:49:47;;;;;;;9.32;1.77;;;0.50;99.90;;;;;;5090524;28;20043;-61
2024/01/16 06:52:12;;;;;;;7.20;2.17;;;0.50;99.90;;;;;;5089721;28;20122;-61
2024/01/16 06:54:38;;;;;;;8.23;2.33;;;0.50;99.90;;;;;;5090085;28;20035;-60
2024/01/16 06:57:04;;;;;;;7.30;2.40;;;0.50;99.90;;;;;;5089925;28;20055;-61
2024/01/16 06:59:30;;;;;;;8.50;2.08;;;0.50;99.90;;;;;;5089452;28;20405;-61
2024/01/16 07:01:55;;;;;;;8.63;1.88;;;0.50;99.90;;;;;;5090206;28;20036;-61
2024/01/16 07:04:21;;;;;;;7.80;2.03;;;0.50;99.90;;;;;;5106506;28;20093;-61
2024/01/16 07:06:47;;;;;;;5.30;1.35;;;0.50;99.90;;;;;;5089409;28;20449;-61
2024/01/16 07:09:13;;;;;;;3.60;1.20;;;0.50;99.90;;;;;;5089965;28;20048;-61
2024/01/16 07:11:42;;;;;;;5.30;1.48;;;0.50;99.90;;;;;;5090252;28;20393;-61
2024/01/16 07:14:11;;;;;;;7.93;2.15;;;0.40;99.90;;;;;;5089777;28;20082;-61
2024/01/16 07:16:37;;;;;;;7.15;1.98;;;0.40;99.90;;;;;;5090149;28;20163;-61
2024/01/16 07:19:03;;;;;;;6.85;2.25;;;0.40;99.90;;;;;;5090763;28;20044;-61
2024/01/16 07:21:29;;;;;;;9.93;2.88;;;0.40;99.90;;;;;;5089329;28;20048;-61
2024/01/16 07:23:55;;;;;;;9.18;2.10;;;0.40;99.90;;;;;;5092373;28;20036;-61
2024/01/16 07:26:22;;;;;;;6.78;1.67;;;0.40;99.90;;;;;;5110708;28;20115;-61
2024/01/16 07:28:48;;;;;;;8.02;1.60;;;0.40;99.90;;;;;;5093024;28;20050;-61
2024/01/16 07:31:16;;;;;;;7.30;1.38;;;0.40;99.90;;;;;;5077455;28;20131;-61
2024/01/16 07:33:42;;;;;;;6.75;2.08;;;0.40;99.90;;;;;;5095147;28;20044;-61
2024/01/16 07:36:09;;;;;;;9.77;2.28;;;0.40;99.90;;;;;;5082161;28;20036;-61
2024/01/16 07:38:36;;;;;;;6.50;1.85;;;0.40;99.90;;;;;;5092705;28;20044;-61
2024/01/16 07:41:02;;;;;;;8.48;2.50;;;0.50;99.90;;;;;;5078258;28;20399;-61
2024/01/16 07:43:29;;;;;;;8.35;2.78;;;0.50;99.90;;;;;;5099094;28;20032;-61
2024/01/16 07:45:55;;;;;;;8.05;1.70;;;0.50;99.90;;;;;;5103384;28;20044;-61
2024/01/16 07:48:22;;;;;;;7.55;1.83;;;0.50;99.90;;;;;;5103980;28;20126;-61
2024/01/16 07:50:48;;;;;;;8.57;1.88;;;0.50;99.90;;;;;;5095147;28;20094;-61
2024/01/16 07:53:15;;;;;;;11.32;2.08;;;0.50;99.90;;;;;;5092932;28;20123;-61
2024/01/16 07:55:41;;;;;;;6.20;2.03;;;0.60;99.90;;;;;;5109400;28;20506;-61
2024/01/16 07:58:07;;;;;;;10.35;1.80;;;0.60;99.90;;;;;;5093411;28;20127;-60
2024/01/16 08:00:33;;;;;;;6.28;1.70;;;0.70;99.90;;;;;;5093421;28;20120;-61
2024/01/16 08:02:58;;;;;;;11.02;1.83;;;0.80;99.90;;;;;;5093932;28;20036;-61
2024/01/16 08:05:27;;;;;;;10.98;1.42;;;0.80;99.90;;;;;;5090734;28;20046;-60
2024/01/16 08:07:54;;;;;;;7.30;2.95;;;0.80;99.90;;;;;;5090612;28;20059;-61
2024/01/16 08:10:19;;;;;;;6.32;1.45;;;0.90;99.90;;;;;;5091101;28;20400;-60
2024/01/16 08:12:45;;;;;;;6.35;1.75;;;0.90;99.90;;;;;;5090728;28;20049;-61
2024/01/16 08:15:11;;;;;;;8.00;2.08;;;0.90;99.90;;;;;;5090254;28;20047;-60
2024/01/16 08:17:37;;;;;;;4.18;2.00;;;0.90;99.90;;;;;;5090700;28;20070;-61
2024/01/16 08:20:03;;;;;;;4.28;1.42;;;0.90;99.90;;;;;;5090989;28;20040;-60
2024/01/16 08:22:29;;;;;;;8.70;2.13;;;0.90;99.90;;;;;;5091914;28;20080;-60
2024/01/16 08:24:55;;;;;;;9.40;2.78;;;0.90;99.90;;;;;;5089910;28;20043;-60
2024/01/16 08:27:20;;;;;;;7.78;2.40;;;0.90;99.90;;;;;;5090459;28;20122;-60
2024/01/16 08:29:49;;;;;;;8.98;4.75;;;1.00;99.90;;;;;;5087721;28;20040;-60
2024/01/16 08:32:16;;;;;;;31.45;21.40;;;1.00;99.90;;;;;;5087956;28;20040;-60
2024/01/16 08:34:43;;;;;;;14.30;5.82;;;0.90;99.90;;;;;;5086672;28;20815;-61
2024/01/16 08:37:09;;;;;;;50.22;24.48;;;1.00;99.90;;;;;;5089587;28;20040;-60
2024/01/16 08:39:35;;;;;;;150.25;80.93;;;1.00;99.90;;;;;;5071198;28;20036;-60
2024/01/16 08:42:04;;;;;;;45.55;23.63;;;1.10;99.90;;;;;;5089107;28;20044;-61
2024/01/16 08:44:29;;;;;;;15.95;5.07;;;1.10;99.90;;;;;;5089542;28;20830;-60
2024/01/16 08:46:55;;;;;;;12.27;3.90;;;1.10;99.90;;;;;;5088738;28;20043;-61
2024/01/16 08:49:21;;;;;;;8.85;2.83;;;1.20;99.90;;;;;;5090800;28;20063;-60
2024/01/16 08:51:46;;;;;;;7.10;2.50;;;1.20;99.90;;;;;;5092864;28;20050;-61
2024/01/16 08:54:12;;;;;;;10.25;2.58;;;1.20;99.90;;;;;;5108832;28;20045;-60
2024/01/16 08:56:38;;;;;;;9.10;3.15;;;1.20;99.90;;;;;;5090329;28;20058;-60
2024/01/16 08:59:04;;;;;;;8.85;2.40;;;1.20;99.90;;;;;;5105232;28;20078;-60
2024/01/16 09:01:30;;;;;;;9.25;2.70;;;1.20;99.90;;;;;;5072313;28;20048;-60
2024/01/16 09:03:56;;;;;;;9.82;2.60;;;1.20;99.90;;;;;;5090765;28;20650;-60
2024/01/16 09:06:21;;;;;;;8.88;1.75;;;1.20;99.90;;;;;;5087833;28;20038;-60
2024/01/16 09:08:47;;;;;;;10.15;1.95;;;1.10;99.90;;;;;;5088950;28;20047;-61
2024/01/16 09:11:13;;;;;;;7.88;1.80;;;1.20;99.90;;;;;;5072356;28;20062;-60
2024/01/16 09:13:38;;;;;;;6.65;2.20;;;1.10;99.90;;;;;;5088323;28;20104;-61
2024/01/16 09:16:04;;;;;;;17.95;5.70;;;1.10;99.90;;;;;;5089283;28;20136;-60
2024/01/16 09:18:30;;;;;;;16.30;3.83;;;1.00;99.90;;;;;;5089734;28;20109;-60
2024/01/16 09:20:56;;;;;;;11.27;5.38;;;1.10;99.90;;;;;;5088519;28;20044;-61
2024/01/16 09:23:22;;;;;;;8.95;3.63;;;1.10;99.90;;;;;;5089087;28;20328;-60
2024/01/16 09:25:48;;;;;;;8.98;3.38;;;1.10;99.90;;;;;;5087851;28;20071;-61
2024/01/16 09:28:14;;;;;;;6.72;2.45;;;1.20;99.90;;;;;;5087446;28;20125;-61
2024/01/16 09:30:44;;;;;;;11.38;5.20;;;1.20;99.90;;;;;;5088532;28;20059;-60
2024/01/16 09:33:10;;;;;;;11.43;3.90;;;1.30;99.90;;;;;;5086961;28;20039;-60
2024/01/16 09:35:36;;;;;;;18.00;10.30;;;1.40;99.90;;;;;;5087969;28;20164;-60
2024/01/16 09:38:04;;;;;;;29.02;15.05;;;1.40;99.90;;;;;;5089997;28;20143;-61
2024/01/16 09:40:30;;;;;;;14.77;7.07;;;1.40;99.90;;;;;;5088295;28;20070;-60
2024/01/16 09:42:56;;;;;;;22.60;10.35;;;1.40;99.90;;;;;;5087765;28;20133;-61
2024/01/16 09:45:24;;;;;;;13.95;6.00;;;1.40;99.90;;;;;;5088607;28;20040;-60
2024/01/16 09:47:51;;;;;;;11.43;5.97;;;1.40;99.90;;;;;;5088621;28;20075;-61
2024/01/16 09:50:19;;;;;;;6.55;3.15;;;1.40;99.90;;;;;;5087347;28;20039;-60
2024/01/16 09:52:46;;;;;;;6.70;2.47;;;1.40;99.90;;;;;;5088138;28;20044;-61
2024/01/16 09:55:13;;;;;;;7.97;2.80;;;1.50;99.90;;;;;;5087664;28;20055;-60
2024/01/16 09:57:41;;;;;;;10.77;4.88;;;1.50;99.90;;;;;;5087988;28;20420;-60
2024/01/16 10:00:11;;;;;;;10.52;4.40;;;1.50;99.90;;;;;;5088483;28;20158;-60
2024/01/16 10:02:40;;;;;;;4.68;2.00;;;1.60;99.90;;;;;;5070516;28;20093;-61
2024/01/16 10:05:10;;;;;;;8.07;2.78;;;1.60;99.90;;;;;;5087726;28;20055;-60
2024/01/16 10:07:40;;;;;;;9.85;2.13;;;1.60;99.90;;;;;;5087940;28;20048;-60
2024/01/16 10:10:10;;;;;;;5.90;1.40;;;1.60;99.90;;;;;;5087847;28;20040;-60
2024/01/16 10:12:39;;;;;;;4.43;1.08;;;1.70;99.90;;;;;;5087914;28;20051;-60
2024/01/16 10:15:07;;;;;;;3.47;1.10;;;1.70;99.90;;;;;;5090115;28;20437;-60
2024/01/16 10:17:41;;;;;;;3.90;1.70;;;1.80;99.90;;;;;;5086787;28;20104;-60
2024/01/16 10:20:09;;;;;;;3.80;1.50;;;1.70;99.90;;;;;;5088212;28;20043;-61
2024/01/16 10:22:38;;;;;;;4.72;1.40;;;1.80;99.90;;;;;;5087590;28;20043;-61
2024/01/16 10:25:09;;;;;;;4.10;1.25;;;1.80;99.90;;;;;;5087403;28;20488;-61
2024/01/16 10:27:36;;;;;;;4.43;1.08;;;1.80;99.90;;;;;;5087691;28;20092;-61
2024/01/16 10:30:02;;;;;;;3.95;1.27;;;1.80;99.90;;;;;;5088081;28;20055;-60
2024/01/16 10:32:37;;;;;;;5.10;1.40;;;1.70;99.90;;;;;;5070820;28;20083;-60
2024/01/16 10:35:13;;;;;;;5.20;2.10;;;1.70;99.90;;;;;;5088354;28;20060;-60
2024/01/16 10:37:47;;;;;;;5.75;1.60;;;1.60;99.90;;;;;;5087372;28;20818;-61
2024/01/16 10:40:18;;;;;;;6.60;1.58;;;1.60;99.90;;;;;;5090330;28;20050;-61
2024/01/16 10:42:57;;;;;;;3.13;1.25;;;1.60;99.90;;;;;;5086297;28;20446;-60
2024/01/16 10:45:23;;;;;;;4.60;1.08;;;1.60;99.90;;;;;;5054579;28;20039;-61
2024/01/16 10:48:02;;;;;;;3.17;0.98;;;1.60;99.90;;;;;;5087572;28;20052;-61
2024/01/16 10:50:28;;;;;;;6.53;1.17;;;1.60;99.90;;;;;;5087045;28;20051;-61
2024/01/16 10:52:55;;;;;;;7.90;2.10;;;1.60;99.90;;;;;;5086358;28;20044;-61
2024/01/16 10:55:24;;;;;;;4.38;1.20;;;1.60;99.90;;;;;;5087068;28;20521;-61
2024/01/16 10:57:51;;;;;;;4.13;1.42;;;1.70;99.90;;;;;;5087978;28;20147;-61
2024/01/16 11:00:23;;;;;;;2.97;1.20;;;1.70;99.90;;;;;;5090491;28;20342;-61
2024/01/16 11:02:57;;;;;;;3.13;1.23;;;1.70;99.90;;;;;;5091718;28;20503;-61
2024/01/16 11:05:23;;;;;;;4.95;1.17;;;1.70;99.90;;;;;;5091407;28;20048;-62
2024/01/16 11:07:50;;;;;;;4.30;1.40;;;1.70;99.90;;;;;;5074093;28;20122;-61
2024/01/16 11:10:18;;;;;;;3.92;1.20;;;1.70;99.90;;;;;;5075130;28;20046;-61
2024/01/16 11:12:46;;;;;;;9.25;1.63;;;1.70;99.90;;;;;;5111055;28;20116;-62
2024/01/16 11:15:13;;;;;;;4.47;1.70;;;1.70;99.90;;;;;;5106526;28;20048;-62
2024/01/16 11:17:41;;;;;;;5.03;1.95;;;1.60;99.90;;;;;;5091163;28;20052;-62
2024/01/16 11:20:14;;;;;;;10.65;4.50;;;1.60;99.90;;;;;;5090404;28;20066;-61
2024/01/16 11:22:43;;;;;;;20.25;11.10;;;1.50;99.90;;;;;;5091291;28;20476;-61
2024/01/16 11:25:13;;;;;;;15.82;5.40;;;1.40;99.90;;;;;;5090917;28;20051;-61
2024/01/16 11:27:41;;;;;;;12.48;6.60;;;1.40;99.90;;;;;;5077851;28;20040;-61
2024/01/16 11:30:11;;;;;;;11.10;5.63;;;1.30;99.90;;;;;;5091320;28;20170;-61
2024/01/16 11:32:40;;;;;;;13.40;7.20;;;1.30;99.90;;;;;;5110952;28;20043;-61
2024/01/16 11:35:06;;;;;;;12.60;5.15;;;1.30;99.90;;;;;;5090137;28;20052;-61
2024/01/16 11:37:34;;;;;;;10.13;4.95;;;1.30;99.90;;;;;;5090948;28;20052;-61
2024/01/16 11:40:20;;;;;;;9.93;4.97;;;1.30;99.90;;;;;;5091532;28;20446;-61
2024/01/16 11:42:53;;;;;;;12.05;6.10;;;1.40;99.90;;;;;;5110209;28;20043;-61
2024/01/16 11:45:31;;;;;;;6.57;2.30;;;1.40;99.90;;;;;;5090902;28;20040;-61
2024/01/16 11:48:16;;;;;;;5.32;2.08;;;1.40;99.90;;;;;;5073008;28;20442;-61
2024/01/16 11:50:43;;;;;;;9.93;2.08;;;1.40;99.90;;;;;;5089655;28;20062;-62
2024/01/16 11:53:09;;;;;;;8.98;3.50;;;1.40;99.90;;;;;;5073431;28;20108;-62
2024/01/16 11:55:47;;;;;;;9.57;2.40;;;1.50;99.90;;;;;;5090209;28;20500;-62
2024/01/16 11:58:39;;;;;;;8.85;1.75;;;1.50;99.90;;;;;;5091391;28;20109;-62
2024/01/16 12:01:05;;;;;;;3.88;1.38;;;1.60;99.90;;;;;;5108305;28;20093;-62
2024/01/16 12:03:32;;;;;;;4.80;1.40;;;1.70;99.90;;;;;;5090033;28;20040;-62
2024/01/16 12:06:02;;;;;;;4.55;1.60;;;1.70;99.90;;;;;;5090519;28;20052;-62
2024/01/16 12:08:29;;;;;;;5.13;1.65;;;1.70;99.90;;;;;;5091870;28;20048;-62
2024/01/16 12:10:55;;;;;;;6.60;1.70;;;1.80;99.90;;;;;;5089245;28;20450;-62
2024/01/16 12:13:20;;;;;;;5.38;1.58;;;1.90;99.90;;;;;;5090790;28;20039;-62
2024/01/16 12:15:46;;;;;;;7.93;1.70;;;2.10;99.90;;;;;;5091896;28;20397;-62
2024/01/16 12:18:18;;;;;;;7.57;1.55;;;2.20;99.90;;;;;;5104216;28;20044;-62
2024/01/16 12:20:44;;;;;;;5.05;2.00;;;2.20;99.90;;;;;;5093860;28;20035;-62
2024/01/16 12:23:10;;;;;;;7.47;2.20;;;2.30;99.90;;;;;;5092471;28;20051;-62
2024/01/16 12:25:39;;;;;;;6.65;1.65;;;2.40;99.90;;;;;;5092661;28;20036;-61
2024/01/16 12:28:06;;;;;;;7.53;1.92;;;2.40;99.90;;;;;;5092938;28;20089;-61
2024/01/16 12:30:33;;;;;;;8.57;1.63;;;2.30;99.90;;;;;;5093180;28;20115;-61
2024/01/16 12:33:27;;;;;;;6.03;2.05;;;2.20;99.90;;;;;;5110292;28;20097;-61
2024/01/16 12:36:02;;;;;;;6.25;2.10;;;2.20;99.90;;;;;;5089854;28;20052;-62
2024/01/16 12:38:28;;;;;;;5.57;2.53;;;2.20;99.90;;;;;;5092254;28;20119;-62
2024/01/16 12:40:54;;;;;;;11.15;2.60;;;2.20;99.90;;;;;;5091826;28;20119;-62
2024/01/16 12:43:20;;;;;;;9.23;2.47;;;2.30;99.90;;;;;;5093925;28;20036;-61
2024/01/16 12:45:45;;;;;;;6.97;2.53;;;2.40;99.90;;;;;;5093072;28;20043;-61
2024/01/16 12:48:12;;;;;;;7.15;2.58;;;2.40;99.90;;;;;;5109982;28;20080;-62
2024/01/16 12:50:37;;;;;;;8.70;2.65;;;2.40;99.90;;;;;;5109923;28;20075;-61
2024/01/16 12:53:08;;;;;;;9.32;3.13;;;2.30;99.90;;;;;;5091810;28;20083;-61